sensor_id;sensor_type;location;lat;lon;timestamp;P1;durP1;ratioP1;P2;durP2;ratioP2
48987;SDS011;34799;51.440;-2.534;2023-08-12T00:00:30;11.98;;;2.35;;
48987;SDS011;34799;51.440;-2.534;2023-08-12T00:02:57;10.85;;;1.63;;
48987;SDS011;34799;51.440;-2.534;2023-08-12T00:05:24;12.25;;;2.70;;
48987;SDS011;34799;51.440;-2.534;2023-08-12T00:07:51;15.10;;;2.15;;
48987;SDS011;34799;51.440;-2.534;2023-08-12T00:10:18;8.40;;;1.38;;
48987;SDS011;34799;51.440;-2.534;2023-08-12T00:12:46;14.38;;;2.10;;
48987;SDS011;34799;51.440;-2.534;2023-08-12T00:15:13;10.18;;;1.50;;
48987;SDS011;34799;51.440;-2.534;2023-08-12T00:17:40;13.88;;;1.77;;
48987;SDS011;34799;51.440;-2.534;2023-08-12T00:20:08;14.63;;;3.20;;
48987;SDS011;34799;51.440;-2.534;2023-08-12T00:22:37;15.43;;;2.67;;
48987;SDS011;34799;51.440;-2.534;2023-08-12T00:25:05;8.40;;;1.67;;
48987;SDS011;34799;51.440;-2.534;2023-08-12T00:27:33;16.23;;;2.65;;
48987;SDS011;34799;51.440;-2.534;2023-08-12T00:30:00;19.02;;;3.42;;
48987;SDS011;34799;51.440;-2.534;2023-08-12T00:32:27;16.38;;;1.73;;
48987;SDS011;34799;51.440;-2.534;2023-08-12T00:34:56;14.43;;;2.63;;
48987;SDS011;34799;51.440;-2.534;2023-08-12T00:37:23;11.70;;;2.10;;
48987;SDS011;34799;51.440;-2.534;2023-08-12T00:39:51;16.70;;;1.75;;
48987;SDS011;34799;51.440;-2.534;2023-08-12T00:42:18;16.52;;;2.17;;
48987;SDS011;34799;51.440;-2.534;2023-08-12T00:44:46;10.93;;;2.10;;
48987;SDS011;34799;51.440;-2.534;2023-08-12T00:47:14;14.80;;;2.13;;
48987;SDS011;34799;51.440;-2.534;2023-08-12T00:49:42;14.98;;;2.30;;
48987;SDS011;34799;51.440;-2.534;2023-08-12T00:52:13;12.57;;;1.77;;
48987;SDS011;34799;51.440;-2.534;2023-08-12T00:54:41;16.48;;;2.40;;
48987;SDS011;34799;51.440;-2.534;2023-08-12T00:57:09;17.50;;;2.15;;
48987;SDS011;34799;51.440;-2.534;2023-08-12T00:59:36;12.55;;;1.77;;
48987;SDS011;34799;51.440;-2.534;2023-08-12T01:02:03;14.40;;;2.53;;
48987;SDS011;34799;51.440;-2.534;2023-08-12T01:04:31;15.38;;;2.55;;
48987;SDS011;34799;51.440;-2.534;2023-08-12T01:06:59;14.30;;;2.78;;
48987;SDS011;34799;51.440;-2.534;2023-08-12T01:09:27;12.30;;;2.72;;
48987;SDS011;34799;51.440;-2.534;2023-08-12T01:11:59;18.13;;;2.42;;
48987;SDS011;34799;51.440;-2.534;2023-08-12T01:17:26;14.93;;;2.17;;
48987;SDS011;34799;51.440;-2.534;2023-08-12T01:19:55;15.93;;;2.10;;
48987;SDS011;34799;51.440;-2.534;2023-08-12T01:22:23;10.77;;;2.47;;
48987;SDS011;34799;51.440;-2.534;2023-08-12T01:24:52;13.82;;;2.53;;
48987;SDS011;34799;51.440;-2.534;2023-08-12T01:27:19;18.67;;;2.08;;
48987;SDS011;34799;51.440;-2.534;2023-08-12T01:29:48;14.90;;;1.90;;
48987;SDS011;34799;51.440;-2.534;2023-08-12T01:35:06;19.67;;;2.65;;
48987;SDS011;34799;51.440;-2.534;2023-08-12T01:37:34;17.67;;;2.40;;
48987;SDS011;34799;51.440;-2.534;2023-08-12T01:40:03;13.13;;;2.40;;
48987;SDS011;34799;51.440;-2.534;2023-08-12T01:42:32;20.00;;;2.60;;
48987;SDS011;34799;51.440;-2.534;2023-08-12T01:45:00;13.93;;;2.05;;
48987;SDS011;34799;51.440;-2.534;2023-08-12T01:47:29;14.82;;;2.67;;
48987;SDS011;34799;51.440;-2.534;2023-08-12T01:49:57;15.75;;;1.75;;
48987;SDS011;34799;51.440;-2.534;2023-08-12T01:52:26;13.40;;;2.40;;
48987;SDS011;34799;51.440;-2.534;2023-08-12T01:54:54;15.68;;;2.65;;
48987;SDS011;34799;51.440;-2.534;2023-08-12T01:57:21;14.55;;;2.40;;
48987;SDS011;34799;51.440;-2.534;2023-08-12T01:59:49;18.08;;;2.33;;
48987;SDS011;34799;51.440;-2.534;2023-08-12T02:02:17;13.88;;;2.35;;
48987;SDS011;34799;51.440;-2.534;2023-08-12T02:04:45;13.85;;;2.05;;
48987;SDS011;34799;51.440;-2.534;2023-08-12T02:07:12;12.13;;;2.42;;
48987;SDS011;34799;51.440;-2.534;2023-08-12T02:09:39;16.67;;;3.00;;
48987;SDS011;34799;51.440;-2.534;2023-08-12T02:12:07;18.20;;;2.72;;
48987;SDS011;34799;51.440;-2.534;2023-08-12T02:14:34;21.15;;;2.92;;
48987;SDS011;34799;51.440;-2.534;2023-08-12T02:17:03;15.40;;;2.65;;
48987;SDS011;34799;51.440;-2.534;2023-08-12T02:19:32;14.48;;;2.40;;
48987;SDS011;34799;51.440;-2.534;2023-08-12T02:22:00;12.32;;;2.13;;
48987;SDS011;34799;51.440;-2.534;2023-08-12T02:24:31;17.83;;;2.95;;
48987;SDS011;34799;51.440;-2.534;2023-08-12T02:26:58;19.88;;;2.53;;
48987;SDS011;34799;51.440;-2.534;2023-08-12T02:29:26;17.23;;;2.53;;
48987;SDS011;34799;51.440;-2.534;2023-08-12T02:31:55;12.90;;;2.15;;
48987;SDS011;34799;51.440;-2.534;2023-08-12T02:34:23;12.57;;;2.15;;
48987;SDS011;34799;51.440;-2.534;2023-08-12T02:36:51;16.90;;;2.03;;
48987;SDS011;34799;51.440;-2.534;2023-08-12T02:39:18;16.08;;;2.40;;
48987;SDS011;34799;51.440;-2.534;2023-08-12T02:41:45;14.55;;;2.30;;
48987;SDS011;34799;51.440;-2.534;2023-08-12T02:44:13;12.75;;;2.28;;
48987;SDS011;34799;51.440;-2.534;2023-08-12T02:46:41;16.60;;;2.50;;
48987;SDS011;34799;51.440;-2.534;2023-08-12T02:49:08;17.83;;;2.90;;
48987;SDS011;34799;51.440;-2.534;2023-08-12T02:51:35;16.67;;;1.80;;
48987;SDS011;34799;51.440;-2.534;2023-08-12T02:54:02;16.65;;;2.35;;
48987;SDS011;34799;51.440;-2.534;2023-08-12T02:56:30;12.93;;;2.30;;
48987;SDS011;34799;51.440;-2.534;2023-08-12T02:58:57;14.20;;;2.60;;
48987;SDS011;34799;51.440;-2.534;2023-08-12T03:01:25;17.67;;;2.20;;
48987;SDS011;34799;51.440;-2.534;2023-08-12T03:03:53;11.73;;;2.60;;
48987;SDS011;34799;51.440;-2.534;2023-08-12T03:06:20;14.77;;;1.90;;
48987;SDS011;34799;51.440;-2.534;2023-08-12T03:08:48;15.75;;;3.03;;
48987;SDS011;34799;51.440;-2.534;2023-08-12T03:11:15;16.40;;;2.60;;
48987;SDS011;34799;51.440;-2.534;2023-08-12T03:13:43;12.80;;;1.90;;
48987;SDS011;34799;51.440;-2.534;2023-08-12T03:16:11;12.75;;;2.40;;
48987;SDS011;34799;51.440;-2.534;2023-08-12T03:18:41;16.38;;;2.03;;
48987;SDS011;34799;51.440;-2.534;2023-08-12T03:21:09;21.30;;;3.42;;
48987;SDS011;34799;51.440;-2.534;2023-08-12T03:23:39;14.48;;;3.00;;
48987;SDS011;34799;51.440;-2.534;2023-08-12T03:26:08;16.58;;;2.53;;
48987;SDS011;34799;51.440;-2.534;2023-08-12T03:28:36;12.90;;;1.88;;
48987;SDS011;34799;51.440;-2.534;2023-08-12T03:31:03;21.58;;;2.83;;
48987;SDS011;34799;51.440;-2.534;2023-08-12T03:33:32;20.42;;;2.45;;
48987;SDS011;34799;51.440;-2.534;2023-08-12T03:36:01;12.93;;;2.00;;
48987;SDS011;34799;51.440;-2.534;2023-08-12T03:38:28;12.88;;;2.28;;
48987;SDS011;34799;51.440;-2.534;2023-08-12T03:40:55;20.42;;;2.63;;
48987;SDS011;34799;51.440;-2.534;2023-08-12T03:43:23;16.25;;;2.72;;
48987;SDS011;34799;51.440;-2.534;2023-08-12T03:45:51;12.15;;;2.03;;
48987;SDS011;34799;51.440;-2.534;2023-08-12T03:48:19;17.38;;;2.05;;
48987;SDS011;34799;51.440;-2.534;2023-08-12T03:50:46;16.45;;;2.45;;
48987;SDS011;34799;51.440;-2.534;2023-08-12T03:53:14;21.15;;;2.20;;
48987;SDS011;34799;51.440;-2.534;2023-08-12T03:55:41;13.93;;;2.92;;
48987;SDS011;34799;51.440;-2.534;2023-08-12T03:58:10;17.15;;;2.40;;
48987;SDS011;34799;51.440;-2.534;2023-08-12T04:00:41;14.38;;;2.72;;
48987;SDS011;34799;51.440;-2.534;2023-08-12T04:03:10;15.30;;;3.53;;
48987;SDS011;34799;51.440;-2.534;2023-08-12T04:05:38;20.23;;;3.00;;
48987;SDS011;34799;51.440;-2.534;2023-08-12T04:08:21;21.70;;;2.72;;
48987;SDS011;34799;51.440;-2.534;2023-08-12T04:10:51;20.65;;;3.65;;
48987;SDS011;34799;51.440;-2.534;2023-08-12T04:13:18;17.95;;;2.67;;
48987;SDS011;34799;51.440;-2.534;2023-08-12T04:15:49;21.08;;;4.05;;
48987;SDS011;34799;51.440;-2.534;2023-08-12T04:18:17;16.95;;;3.20;;
48987;SDS011;34799;51.440;-2.534;2023-08-12T04:20:45;19.30;;;2.95;;
48987;SDS011;34799;51.440;-2.534;2023-08-12T04:23:13;13.90;;;2.28;;
48987;SDS011;34799;51.440;-2.534;2023-08-12T04:25:42;19.67;;;3.13;;
48987;SDS011;34799;51.440;-2.534;2023-08-12T04:28:13;20.77;;;3.53;;
48987;SDS011;34799;51.440;-2.534;2023-08-12T04:30:47;14.52;;;2.30;;
48987;SDS011;34799;51.440;-2.534;2023-08-12T04:33:17;12.40;;;2.33;;
48987;SDS011;34799;51.440;-2.534;2023-08-12T04:35:47;14.23;;;2.35;;
48987;SDS011;34799;51.440;-2.534;2023-08-12T04:38:16;16.38;;;2.25;;
48987;SDS011;34799;51.440;-2.534;2023-08-12T04:40:44;26.75;;;3.40;;
48987;SDS011;34799;51.440;-2.534;2023-08-12T04:43:11;13.70;;;2.88;;
48987;SDS011;34799;51.440;-2.534;2023-08-12T04:45:44;13.57;;;2.05;;
48987;SDS011;34799;51.440;-2.534;2023-08-12T04:48:12;15.80;;;2.78;;
48987;SDS011;34799;51.440;-2.534;2023-08-12T04:50:42;19.92;;;2.10;;
48987;SDS011;34799;51.440;-2.534;2023-08-12T04:53:09;15.13;;;2.72;;
48987;SDS011;34799;51.440;-2.534;2023-08-12T04:55:36;14.80;;;1.80;;
48987;SDS011;34799;51.440;-2.534;2023-08-12T04:58:04;22.20;;;2.45;;
48987;SDS011;34799;51.440;-2.534;2023-08-12T05:00:32;19.88;;;2.38;;
48987;SDS011;34799;51.440;-2.534;2023-08-12T05:02:59;23.98;;;2.88;;
48987;SDS011;34799;51.440;-2.534;2023-08-12T05:05:27;23.73;;;2.78;;
48987;SDS011;34799;51.440;-2.534;2023-08-12T05:07:54;23.52;;;3.35;;
48987;SDS011;34799;51.440;-2.534;2023-08-12T05:10:22;17.98;;;2.05;;
48987;SDS011;34799;51.440;-2.534;2023-08-12T05:12:50;16.92;;;2.28;;
48987;SDS011;34799;51.440;-2.534;2023-08-12T05:15:20;18.88;;;3.13;;
48987;SDS011;34799;51.440;-2.534;2023-08-12T05:17:49;16.60;;;1.90;;
48987;SDS011;34799;51.440;-2.534;2023-08-12T05:20:19;15.07;;;2.88;;
48987;SDS011;34799;51.440;-2.534;2023-08-12T05:22:46;14.63;;;2.30;;
48987;SDS011;34799;51.440;-2.534;2023-08-12T05:25:14;18.83;;;2.72;;
48987;SDS011;34799;51.440;-2.534;2023-08-12T05:27:41;16.48;;;1.95;;
48987;SDS011;34799;51.440;-2.534;2023-08-12T05:30:08;15.52;;;2.25;;
48987;SDS011;34799;51.440;-2.534;2023-08-12T05:32:35;17.77;;;2.55;;
48987;SDS011;34799;51.440;-2.534;2023-08-12T05:35:02;21.02;;;2.92;;
48987;SDS011;34799;51.440;-2.534;2023-08-12T05:37:29;12.00;;;1.85;;
48987;SDS011;34799;51.440;-2.534;2023-08-12T05:39:57;18.73;;;2.30;;
48987;SDS011;34799;51.440;-2.534;2023-08-12T05:42:24;18.02;;;2.28;;
48987;SDS011;34799;51.440;-2.534;2023-08-12T05:44:51;18.13;;;2.03;;
48987;SDS011;34799;51.440;-2.534;2023-08-12T05:47:18;19.23;;;2.30;;
48987;SDS011;34799;51.440;-2.534;2023-08-12T05:49:46;18.88;;;2.22;;
48987;SDS011;34799;51.440;-2.534;2023-08-12T05:52:13;20.63;;;2.45;;
48987;SDS011;34799;51.440;-2.534;2023-08-12T05:54:41;16.00;;;2.22;;
48987;SDS011;34799;51.440;-2.534;2023-08-12T05:57:08;18.00;;;3.03;;
48987;SDS011;34799;51.440;-2.534;2023-08-12T05:59:36;22.90;;;2.75;;
48987;SDS011;34799;51.440;-2.534;2023-08-12T06:02:03;23.65;;;4.03;;
48987;SDS011;34799;51.440;-2.534;2023-08-12T06:04:31;18.92;;;1.90;;
48987;SDS011;34799;51.440;-2.534;2023-08-12T06:06:58;19.88;;;2.85;;
48987;SDS011;34799;51.440;-2.534;2023-08-12T06:09:26;16.95;;;2.72;;
48987;SDS011;34799;51.440;-2.534;2023-08-12T06:11:53;14.75;;;3.47;;
48987;SDS011;34799;51.440;-2.534;2023-08-12T06:14:21;17.80;;;1.83;;
48987;SDS011;34799;51.440;-2.534;2023-08-12T06:16:48;14.38;;;2.50;;
48987;SDS011;34799;51.440;-2.534;2023-08-12T06:19:16;24.00;;;3.15;;
48987;SDS011;34799;51.440;-2.534;2023-08-12T06:21:43;21.88;;;2.60;;
48987;SDS011;34799;51.440;-2.534;2023-08-12T06:24:10;23.98;;;2.75;;
48987;SDS011;34799;51.440;-2.534;2023-08-12T06:26:38;20.90;;;2.88;;
48987;SDS011;34799;51.440;-2.534;2023-08-12T06:29:05;16.25;;;2.17;;
48987;SDS011;34799;51.440;-2.534;2023-08-12T06:31:33;22.02;;;3.10;;
48987;SDS011;34799;51.440;-2.534;2023-08-12T06:34:00;19.75;;;2.75;;
48987;SDS011;34799;51.440;-2.534;2023-08-12T06:36:28;18.77;;;2.83;;
48987;SDS011;34799;51.440;-2.534;2023-08-12T06:38:55;22.00;;;2.85;;
48987;SDS011;34799;51.440;-2.534;2023-08-12T06:41:23;15.20;;;2.03;;
48987;SDS011;34799;51.440;-2.534;2023-08-12T06:43:50;19.65;;;2.40;;
48987;SDS011;34799;51.440;-2.534;2023-08-12T06:46:18;15.20;;;2.08;;
48987;SDS011;34799;51.440;-2.534;2023-08-12T06:48:45;18.17;;;2.38;;
48987;SDS011;34799;51.440;-2.534;2023-08-12T06:51:13;22.60;;;2.70;;
48987;SDS011;34799;51.440;-2.534;2023-08-12T06:53:40;18.77;;;1.92;;
48987;SDS011;34799;51.440;-2.534;2023-08-12T06:56:07;20.30;;;2.15;;
48987;SDS011;34799;51.440;-2.534;2023-08-12T06:58:35;17.05;;;2.38;;
48987;SDS011;34799;51.440;-2.534;2023-08-12T07:01:03;17.02;;;2.88;;
48987;SDS011;34799;51.440;-2.534;2023-08-12T07:03:30;23.58;;;2.97;;
48987;SDS011;34799;51.440;-2.534;2023-08-12T07:05:57;14.15;;;1.83;;
48987;SDS011;34799;51.440;-2.534;2023-08-12T07:08:25;15.40;;;2.10;;
48987;SDS011;34799;51.440;-2.534;2023-08-12T07:10:53;12.90;;;1.55;;
48987;SDS011;34799;51.440;-2.534;2023-08-12T07:13:20;14.43;;;1.65;;
48987;SDS011;34799;51.440;-2.534;2023-08-12T07:15:48;15.38;;;2.05;;
48987;SDS011;34799;51.440;-2.534;2023-08-12T07:18:15;17.92;;;2.05;;
48987;SDS011;34799;51.440;-2.534;2023-08-12T07:20:42;18.55;;;2.08;;
48987;SDS011;34799;51.440;-2.534;2023-08-12T07:23:10;8.90;;;1.55;;
48987;SDS011;34799;51.440;-2.534;2023-08-12T07:25:37;14.07;;;1.60;;
48987;SDS011;34799;51.440;-2.534;2023-08-12T07:28:05;15.98;;;1.95;;
48987;SDS011;34799;51.440;-2.534;2023-08-12T07:30:34;13.05;;;2.15;;
48987;SDS011;34799;51.440;-2.534;2023-08-12T07:33:02;18.42;;;1.85;;
48987;SDS011;34799;51.440;-2.534;2023-08-12T07:35:30;13.75;;;1.90;;
48987;SDS011;34799;51.440;-2.534;2023-08-12T07:37:57;15.82;;;3.25;;
48987;SDS011;34799;51.440;-2.534;2023-08-12T07:40:24;16.77;;;2.03;;
48987;SDS011;34799;51.440;-2.534;2023-08-12T07:42:51;19.05;;;2.53;;
48987;SDS011;34799;51.440;-2.534;2023-08-12T07:45:18;11.85;;;1.60;;
48987;SDS011;34799;51.440;-2.534;2023-08-12T07:47:45;18.55;;;2.35;;
48987;SDS011;34799;51.440;-2.534;2023-08-12T07:50:13;18.80;;;1.77;;
48987;SDS011;34799;51.440;-2.534;2023-08-12T07:52:40;17.55;;;2.13;;
48987;SDS011;34799;51.440;-2.534;2023-08-12T07:55:07;13.65;;;2.28;;
48987;SDS011;34799;51.440;-2.534;2023-08-12T07:57:35;13.85;;;2.03;;
48987;SDS011;34799;51.440;-2.534;2023-08-12T08:00:02;15.07;;;2.15;;
48987;SDS011;34799;51.440;-2.534;2023-08-12T08:02:30;16.85;;;2.80;;
48987;SDS011;34799;51.440;-2.534;2023-08-12T08:04:57;14.07;;;1.40;;
48987;SDS011;34799;51.440;-2.534;2023-08-12T08:07:25;14.90;;;1.83;;
48987;SDS011;34799;51.440;-2.534;2023-08-12T08:09:52;15.18;;;1.63;;
48987;SDS011;34799;51.440;-2.534;2023-08-12T08:12:19;11.23;;;1.50;;
48987;SDS011;34799;51.440;-2.534;2023-08-12T08:14:47;13.38;;;1.73;;
48987;SDS011;34799;51.440;-2.534;2023-08-12T08:17:15;13.50;;;1.55;;
48987;SDS011;34799;51.440;-2.534;2023-08-12T08:19:42;16.50;;;2.08;;
48987;SDS011;34799;51.440;-2.534;2023-08-12T08:22:09;13.85;;;1.95;;
48987;SDS011;34799;51.440;-2.534;2023-08-12T08:24:37;11.02;;;1.58;;
48987;SDS011;34799;51.440;-2.534;2023-08-12T08:27:05;11.20;;;1.45;;
48987;SDS011;34799;51.440;-2.534;2023-08-12T08:29:32;11.98;;;1.73;;
48987;SDS011;34799;51.440;-2.534;2023-08-12T08:31:59;12.65;;;1.45;;
48987;SDS011;34799;51.440;-2.534;2023-08-12T08:34:27;10.88;;;1.38;;
48987;SDS011;34799;51.440;-2.534;2023-08-12T08:36:54;16.58;;;1.05;;
48987;SDS011;34799;51.440;-2.534;2023-08-12T08:39:21;13.80;;;2.20;;
48987;SDS011;34799;51.440;-2.534;2023-08-12T08:41:49;8.38;;;1.42;;
48987;SDS011;34799;51.440;-2.534;2023-08-12T08:44:18;11.07;;;1.63;;
48987;SDS011;34799;51.440;-2.534;2023-08-12T08:46:50;12.90;;;1.55;;
48987;SDS011;34799;51.440;-2.534;2023-08-12T08:49:21;11.98;;;1.20;;
48987;SDS011;34799;51.440;-2.534;2023-08-12T08:51:49;8.65;;;1.00;;
48987;SDS011;34799;51.440;-2.534;2023-08-12T08:54:18;11.68;;;1.58;;
48987;SDS011;34799;51.440;-2.534;2023-08-12T08:56:46;8.60;;;1.33;;
48987;SDS011;34799;51.440;-2.534;2023-08-12T08:59:15;10.50;;;1.60;;
48987;SDS011;34799;51.440;-2.534;2023-08-12T09:01:43;11.07;;;1.30;;
48987;SDS011;34799;51.440;-2.534;2023-08-12T09:04:14;11.43;;;1.33;;
48987;SDS011;34799;51.440;-2.534;2023-08-12T09:06:43;8.27;;;1.17;;
48987;SDS011;34799;51.440;-2.534;2023-08-12T09:09:12;10.55;;;1.17;;
48987;SDS011;34799;51.440;-2.534;2023-08-12T09:11:42;7.80;;;0.90;;
48987;SDS011;34799;51.440;-2.534;2023-08-12T09:14:12;10.15;;;1.17;;
48987;SDS011;34799;51.440;-2.534;2023-08-12T09:16:41;9.00;;;0.98;;
48987;SDS011;34799;51.440;-2.534;2023-08-12T09:19:09;8.30;;;1.55;;
48987;SDS011;34799;51.440;-2.534;2023-08-12T09:21:36;9.85;;;1.10;;
48987;SDS011;34799;51.440;-2.534;2023-08-12T09:24:04;14.88;;;1.70;;
48987;SDS011;34799;51.440;-2.534;2023-08-12T09:26:32;10.57;;;1.23;;
48987;SDS011;34799;51.440;-2.534;2023-08-12T09:28:59;12.45;;;1.63;;
48987;SDS011;34799;51.440;-2.534;2023-08-12T09:31:28;8.30;;;1.17;;
48987;SDS011;34799;51.440;-2.534;2023-08-12T09:33:59;8.68;;;0.90;;
48987;SDS011;34799;51.440;-2.534;2023-08-12T09:36:33;5.07;;;0.88;;
48987;SDS011;34799;51.440;-2.534;2023-08-12T09:39:05;7.38;;;1.60;;
48987;SDS011;34799;51.440;-2.534;2023-08-12T09:41:36;7.35;;;0.70;;
48987;SDS011;34799;51.440;-2.534;2023-08-12T09:44:05;8.05;;;0.70;;
48987;SDS011;34799;51.440;-2.534;2023-08-12T09:46:33;5.07;;;0.60;;
48987;SDS011;34799;51.440;-2.534;2023-08-12T09:49:00;5.72;;;0.80;;
48987;SDS011;34799;51.440;-2.534;2023-08-12T09:51:27;4.13;;;0.93;;
48987;SDS011;34799;51.440;-2.534;2023-08-12T09:54:02;9.85;;;1.00;;
48987;SDS011;34799;51.440;-2.534;2023-08-12T09:56:30;4.75;;;0.80;;
48987;SDS011;34799;51.440;-2.534;2023-08-12T09:59:05;5.63;;;0.70;;
48987;SDS011;34799;51.440;-2.534;2023-08-12T10:01:35;4.68;;;0.85;;
48987;SDS011;34799;51.440;-2.534;2023-08-12T10:04:04;5.95;;;0.52;;
48987;SDS011;34799;51.440;-2.534;2023-08-12T10:06:37;4.72;;;0.50;;
48987;SDS011;34799;51.440;-2.534;2023-08-12T10:09:05;10.85;;;0.90;;
48987;SDS011;34799;51.440;-2.534;2023-08-12T10:11:35;6.35;;;0.90;;
48987;SDS011;34799;51.440;-2.534;2023-08-12T10:14:03;4.53;;;0.50;;
48987;SDS011;34799;51.440;-2.534;2023-08-12T10:16:30;7.32;;;0.60;;
48987;SDS011;34799;51.440;-2.534;2023-08-12T10:18:59;3.75;;;0.70;;
48987;SDS011;34799;51.440;-2.534;2023-08-12T10:21:27;5.30;;;0.65;;
48987;SDS011;34799;51.440;-2.534;2023-08-12T10:23:54;8.35;;;0.70;;
48987;SDS011;34799;51.440;-2.534;2023-08-12T10:26:25;6.15;;;0.90;;
48987;SDS011;34799;51.440;-2.534;2023-08-12T10:28:53;5.13;;;1.15;;
48987;SDS011;34799;51.440;-2.534;2023-08-12T10:31:21;6.05;;;0.80;;
48987;SDS011;34799;51.440;-2.534;2023-08-12T10:33:48;6.28;;;0.68;;
48987;SDS011;34799;51.440;-2.534;2023-08-12T10:36:16;6.70;;;0.60;;
48987;SDS011;34799;51.440;-2.534;2023-08-12T10:38:45;2.65;;;0.43;;
48987;SDS011;34799;51.440;-2.534;2023-08-12T10:43:53;5.43;;;0.65;;
48987;SDS011;34799;51.440;-2.534;2023-08-12T10:46:32;5.72;;;0.47;;
48987;SDS011;34799;51.440;-2.534;2023-08-12T10:49:04;7.68;;;0.82;;
48987;SDS011;34799;51.440;-2.534;2023-08-12T10:51:40;6.38;;;0.70;;
48987;SDS011;34799;51.440;-2.534;2023-08-12T10:54:14;7.53;;;0.77;;
48987;SDS011;34799;51.440;-2.534;2023-08-12T11:05:11;6.00;;;0.65;;
48987;SDS011;34799;51.440;-2.534;2023-08-12T11:07:43;6.22;;;0.65;;
48987;SDS011;34799;51.440;-2.534;2023-08-12T11:10:14;7.57;;;0.70;;
48987;SDS011;34799;51.440;-2.534;2023-08-12T11:15:28;8.07;;;1.00;;
48987;SDS011;34799;51.440;-2.534;2023-08-12T11:17:58;9.25;;;1.08;;
48987;SDS011;34799;51.440;-2.534;2023-08-12T11:20:27;8.85;;;1.02;;
48987;SDS011;34799;51.440;-2.534;2023-08-12T11:22:57;7.07;;;0.63;;
48987;SDS011;34799;51.440;-2.534;2023-08-12T11:25:25;6.57;;;0.80;;
48987;SDS011;34799;51.440;-2.534;2023-08-12T11:27:54;9.35;;;1.13;;
48987;SDS011;34799;51.440;-2.534;2023-08-12T11:30:23;7.63;;;1.15;;
48987;SDS011;34799;51.440;-2.534;2023-08-12T11:32:54;7.93;;;1.33;;
48987;SDS011;34799;51.440;-2.534;2023-08-12T11:35:23;8.02;;;0.70;;
48987;SDS011;34799;51.440;-2.534;2023-08-12T11:37:55;6.65;;;0.80;;
48987;SDS011;34799;51.440;-2.534;2023-08-12T11:40:23;7.13;;;0.82;;
48987;SDS011;34799;51.440;-2.534;2023-08-12T11:42:51;5.97;;;0.95;;
48987;SDS011;34799;51.440;-2.534;2023-08-12T11:45:24;6.00;;;1.20;;
48987;SDS011;34799;51.440;-2.534;2023-08-12T11:47:53;7.28;;;0.75;;
48987;SDS011;34799;51.440;-2.534;2023-08-12T11:50:23;4.72;;;0.63;;
48987;SDS011;34799;51.440;-2.534;2023-08-12T11:52:53;3.28;;;0.57;;
48987;SDS011;34799;51.440;-2.534;2023-08-12T11:55:24;3.63;;;0.38;;
48987;SDS011;34799;51.440;-2.534;2023-08-12T11:57:52;5.50;;;0.75;;
48987;SDS011;34799;51.440;-2.534;2023-08-12T12:00:19;3.75;;;0.63;;
48987;SDS011;34799;51.440;-2.534;2023-08-12T12:02:48;5.97;;;0.75;;
48987;SDS011;34799;51.440;-2.534;2023-08-12T12:05:17;4.97;;;0.85;;
48987;SDS011;34799;51.440;-2.534;2023-08-12T12:07:48;4.50;;;0.65;;
48987;SDS011;34799;51.440;-2.534;2023-08-12T12:10:19;3.85;;;0.85;;
48987;SDS011;34799;51.440;-2.534;2023-08-12T12:12:48;5.35;;;0.47;;
48987;SDS011;34799;51.440;-2.534;2023-08-12T12:15:15;2.95;;;0.35;;
48987;SDS011;34799;51.440;-2.534;2023-08-12T12:17:42;3.92;;;0.50;;
48987;SDS011;34799;51.440;-2.534;2023-08-12T12:20:13;5.00;;;0.50;;
48987;SDS011;34799;51.440;-2.534;2023-08-12T12:22:43;3.38;;;0.35;;
48987;SDS011;34799;51.440;-2.534;2023-08-12T12:25:12;3.63;;;0.30;;
48987;SDS011;34799;51.440;-2.534;2023-08-12T12:27:43;4.80;;;0.30;;
48987;SDS011;34799;51.440;-2.534;2023-08-12T12:30:12;3.58;;;0.40;;
48987;SDS011;34799;51.440;-2.534;2023-08-12T12:32:42;6.47;;;0.73;;
48987;SDS011;34799;51.440;-2.534;2023-08-12T12:35:09;4.32;;;0.40;;
48987;SDS011;34799;51.440;-2.534;2023-08-12T12:37:36;2.60;;;0.32;;
48987;SDS011;34799;51.440;-2.534;2023-08-12T12:40:04;4.10;;;0.50;;
48987;SDS011;34799;51.440;-2.534;2023-08-12T12:42:32;3.28;;;0.32;;
48987;SDS011;34799;51.440;-2.534;2023-08-12T12:44:59;2.90;;;0.50;;
48987;SDS011;34799;51.440;-2.534;2023-08-12T12:47:26;2.95;;;0.43;;
48987;SDS011;34799;51.440;-2.534;2023-08-12T12:49:53;7.75;;;0.60;;
48987;SDS011;34799;51.440;-2.534;2023-08-12T12:52:21;5.78;;;0.85;;
48987;SDS011;34799;51.440;-2.534;2023-08-12T12:54:48;2.92;;;0.43;;
48987;SDS011;34799;51.440;-2.534;2023-08-12T12:57:16;6.13;;;0.60;;
48987;SDS011;34799;51.440;-2.534;2023-08-12T12:59:43;5.95;;;0.60;;
48987;SDS011;34799;51.440;-2.534;2023-08-12T13:02:11;7.80;;;1.08;;
48987;SDS011;34799;51.440;-2.534;2023-08-12T13:04:38;8.48;;;1.23;;
48987;SDS011;34799;51.440;-2.534;2023-08-12T13:07:05;5.45;;;0.50;;
48987;SDS011;34799;51.440;-2.534;2023-08-12T13:09:33;7.30;;;1.00;;
48987;SDS011;34799;51.440;-2.534;2023-08-12T13:12:00;5.13;;;0.77;;
48987;SDS011;34799;51.440;-2.534;2023-08-12T13:14:28;6.85;;;1.05;;
48987;SDS011;34799;51.440;-2.534;2023-08-12T13:16:56;4.25;;;0.63;;
48987;SDS011;34799;51.440;-2.534;2023-08-12T13:19:24;5.10;;;0.73;;
48987;SDS011;34799;51.440;-2.534;2023-08-12T13:21:51;5.95;;;0.70;;
48987;SDS011;34799;51.440;-2.534;2023-08-12T13:24:18;7.95;;;1.15;;
48987;SDS011;34799;51.440;-2.534;2023-08-12T13:26:46;6.28;;;1.00;;
48987;SDS011;34799;51.440;-2.534;2023-08-12T13:29:13;6.55;;;1.05;;
48987;SDS011;34799;51.440;-2.534;2023-08-12T13:31:40;11.32;;;1.13;;
48987;SDS011;34799;51.440;-2.534;2023-08-12T13:34:08;9.45;;;0.90;;
48987;SDS011;34799;51.440;-2.534;2023-08-12T13:36:35;7.68;;;1.00;;
48987;SDS011;34799;51.440;-2.534;2023-08-12T13:39:03;12.63;;;1.60;;
48987;SDS011;34799;51.440;-2.534;2023-08-12T13:41:30;7.15;;;1.05;;
48987;SDS011;34799;51.440;-2.534;2023-08-12T13:43:58;5.03;;;0.70;;
48987;SDS011;34799;51.440;-2.534;2023-08-12T13:46:25;6.00;;;0.60;;
48987;SDS011;34799;51.440;-2.534;2023-08-12T13:48:53;3.50;;;0.30;;
48987;SDS011;34799;51.440;-2.534;2023-08-12T13:51:20;4.95;;;0.55;;
48987;SDS011;34799;51.440;-2.534;2023-08-12T13:53:48;4.68;;;0.45;;
48987;SDS011;34799;51.440;-2.534;2023-08-12T13:56:15;5.13;;;0.82;;
48987;SDS011;34799;51.440;-2.534;2023-08-12T13:58:43;10.18;;;1.00;;
48987;SDS011;34799;51.440;-2.534;2023-08-12T14:01:11;2.75;;;0.20;;
48987;SDS011;34799;51.440;-2.534;2023-08-12T14:03:38;4.82;;;0.60;;
48987;SDS011;34799;51.440;-2.534;2023-08-12T14:06:06;2.85;;;0.22;;
48987;SDS011;34799;51.440;-2.534;2023-08-12T14:08:33;4.78;;;0.40;;
48987;SDS011;34799;51.440;-2.534;2023-08-12T14:11:00;3.13;;;0.40;;
48987;SDS011;34799;51.440;-2.534;2023-08-12T14:13:28;6.20;;;0.43;;
48987;SDS011;34799;51.440;-2.534;2023-08-12T14:15:55;3.08;;;0.30;;
48987;SDS011;34799;51.440;-2.534;2023-08-12T14:18:23;6.32;;;0.50;;
48987;SDS011;34799;51.440;-2.534;2023-08-12T14:20:50;5.03;;;0.70;;
48987;SDS011;34799;51.440;-2.534;2023-08-12T14:23:18;5.45;;;0.63;;
48987;SDS011;34799;51.440;-2.534;2023-08-12T14:25:45;2.75;;;0.30;;
48987;SDS011;34799;51.440;-2.534;2023-08-12T14:28:13;2.28;;;0.47;;
48987;SDS011;34799;51.440;-2.534;2023-08-12T14:30:40;4.75;;;0.77;;
48987;SDS011;34799;51.440;-2.534;2023-08-12T14:33:08;2.92;;;0.50;;
48987;SDS011;34799;51.440;-2.534;2023-08-12T14:35:35;6.00;;;0.68;;
48987;SDS011;34799;51.440;-2.534;2023-08-12T14:38:03;4.63;;;0.50;;
48987;SDS011;34799;51.440;-2.534;2023-08-12T14:40:30;8.82;;;0.60;;
48987;SDS011;34799;51.440;-2.534;2023-08-12T14:42:58;3.95;;;0.40;;
48987;SDS011;34799;51.440;-2.534;2023-08-12T14:45:25;3.72;;;0.30;;
48987;SDS011;34799;51.440;-2.534;2023-08-12T14:47:53;6.60;;;0.40;;
48987;SDS011;34799;51.440;-2.534;2023-08-12T14:50:20;5.90;;;0.57;;